sensor_id;sensor_type;location;lat;lon;timestamp;P1;durP1;ratioP1;P2;durP2;ratioP2
31308;SDS011;17936;52.446;10.840;2022-10-16T00:01:57;1.33;;;0.55;;
31308;SDS011;17936;52.446;10.840;2022-10-16T00:04:22;1.85;;;0.70;;
31308;SDS011;17936;52.446;10.840;2022-10-16T00:06:47;4.35;;;0.70;;
31308;SDS011;17936;52.446;10.840;2022-10-16T00:09:13;1.40;;;0.60;;
31308;SDS011;17936;52.446;10.840;2022-10-16T00:11:39;2.42;;;0.70;;
31308;SDS011;17936;52.446;10.840;2022-10-16T00:14:14;2.28;;;0.70;;
31308;SDS011;17936;52.446;10.840;2022-10-16T00:16:40;0.82;;;0.60;;
31308;SDS011;17936;52.446;10.840;2022-10-16T00:19:05;1.80;;;0.70;;
31308;SDS011;17936;52.446;10.840;2022-10-16T00:21:31;2.80;;;0.90;;
31308;SDS011;17936;52.446;10.840;2022-10-16T00:23:58;1.00;;;0.60;;
31308;SDS011;17936;52.446;10.840;2022-10-16T00:26:26;1.08;;;0.55;;
31308;SDS011;17936;52.446;10.840;2022-10-16T00:28:53;5.05;;;1.05;;
31308;SDS011;17936;52.446;10.840;2022-10-16T00:31:19;4.07;;;0.80;;
31308;SDS011;17936;52.446;10.840;2022-10-16T00:33:46;1.70;;;0.80;;
31308;SDS011;17936;52.446;10.840;2022-10-16T00:36:13;2.65;;;0.80;;
31308;SDS011;17936;52.446;10.840;2022-10-16T00:38:41;1.10;;;0.73;;
31308;SDS011;17936;52.446;10.840;2022-10-16T00:41:07;2.30;;;0.95;;
31308;SDS011;17936;52.446;10.840;2022-10-16T00:43:37;2.90;;;0.98;;
31308;SDS011;17936;52.446;10.840;2022-10-16T00:46:09;1.92;;;0.57;;
31308;SDS011;17936;52.446;10.840;2022-10-16T00:48:52;2.20;;;0.80;;
31308;SDS011;17936;52.446;10.840;2022-10-16T00:51:23;1.83;;;0.63;;
31308;SDS011;17936;52.446;10.840;2022-10-16T00:53:53;0.70;;;0.50;;
31308;SDS011;17936;52.446;10.840;2022-10-16T00:56:20;1.52;;;0.55;;
31308;SDS011;17936;52.446;10.840;2022-10-16T00:58:45;1.63;;;0.75;;
31308;SDS011;17936;52.446;10.840;2022-10-16T01:01:11;4.00;;;0.80;;
31308;SDS011;17936;52.446;10.840;2022-10-16T01:03:37;2.83;;;0.90;;
31308;SDS011;17936;52.446;10.840;2022-10-16T01:06:05;1.85;;;0.80;;
31308;SDS011;17936;52.446;10.840;2022-10-16T01:08:58;3.28;;;1.17;;
31308;SDS011;17936;52.446;10.840;2022-10-16T01:17:18;2.15;;;1.20;;
31308;SDS011;17936;52.446;10.840;2022-10-16T01:22:38;2.13;;;1.10;;
31308;SDS011;17936;52.446;10.840;2022-10-16T01:25:25;1.55;;;0.85;;
31308;SDS011;17936;52.446;10.840;2022-10-16T01:28:02;3.85;;;1.10;;
31308;SDS011;17936;52.446;10.840;2022-10-16T01:30:31;1.75;;;0.70;;
31308;SDS011;17936;52.446;10.840;2022-10-16T01:33:10;3.97;;;1.10;;
31308;SDS011;17936;52.446;10.840;2022-10-16T01:35:45;2.72;;;1.05;;
31308;SDS011;17936;52.446;10.840;2022-10-16T01:38:29;0.85;;;0.75;;
31308;SDS011;17936;52.446;10.840;2022-10-16T01:41:21;1.45;;;0.90;;
31308;SDS011;17936;52.446;10.840;2022-10-16T01:44:01;1.42;;;0.90;;
31308;SDS011;17936;52.446;10.840;2022-10-16T01:46:36;4.28;;;0.90;;
31308;SDS011;17936;52.446;10.840;2022-10-16T01:49:04;2.40;;;1.08;;
31308;SDS011;17936;52.446;10.840;2022-10-16T01:51:31;5.07;;;1.42;;
31308;SDS011;17936;52.446;10.840;2022-10-16T01:53:59;1.95;;;1.10;;
31308;SDS011;17936;52.446;10.840;2022-10-16T01:56:26;2.47;;;1.23;;
31308;SDS011;17936;52.446;10.840;2022-10-16T01:59:00;3.55;;;1.10;;
31308;SDS011;17936;52.446;10.840;2022-10-16T02:01:30;2.17;;;1.15;;
31308;SDS011;17936;52.446;10.840;2022-10-16T02:04:02;2.75;;;1.00;;
31308;SDS011;17936;52.446;10.840;2022-10-16T02:06:32;2.65;;;1.15;;
31308;SDS011;17936;52.446;10.840;2022-10-16T02:08:58;1.77;;;1.17;;
31308;SDS011;17936;52.446;10.840;2022-10-16T02:11:24;4.53;;;1.23;;
31308;SDS011;17936;52.446;10.840;2022-10-16T02:13:53;4.05;;;1.13;;
31308;SDS011;17936;52.446;10.840;2022-10-16T02:16:32;1.20;;;1.10;;
31308;SDS011;17936;52.446;10.840;2022-10-16T02:19:06;1.55;;;1.17;;
31308;SDS011;17936;52.446;10.840;2022-10-16T02:21:43;2.75;;;1.20;;
31308;SDS011;17936;52.446;10.840;2022-10-16T02:24:18;1.90;;;1.20;;
31308;SDS011;17936;52.446;10.840;2022-10-16T02:26:56;2.03;;;1.20;;
31308;SDS011;17936;52.446;10.840;2022-10-16T02:29:30;2.38;;;1.08;;
31308;SDS011;17936;52.446;10.840;2022-10-16T02:32:02;1.92;;;1.40;;
31308;SDS011;17936;52.446;10.840;2022-10-16T02:34:31;5.00;;;1.70;;
31308;SDS011;17936;52.446;10.840;2022-10-16T02:36:58;4.38;;;1.20;;
31308;SDS011;17936;52.446;10.840;2022-10-16T02:39:26;3.72;;;1.00;;
31308;SDS011;17936;52.446;10.840;2022-10-16T02:41:53;2.00;;;1.40;;
31308;SDS011;17936;52.446;10.840;2022-10-16T02:44:19;3.78;;;1.30;;
31308;SDS011;17936;52.446;10.840;2022-10-16T02:46:44;6.32;;;1.02;;
31308;SDS011;17936;52.446;10.840;2022-10-16T02:49:09;3.53;;;1.23;;
31308;SDS011;17936;52.446;10.840;2022-10-16T02:51:35;3.33;;;1.10;;
31308;SDS011;17936;52.446;10.840;2022-10-16T02:54:01;3.53;;;1.30;;
31308;SDS011;17936;52.446;10.840;2022-10-16T02:56:27;1.58;;;1.25;;
31308;SDS011;17936;52.446;10.840;2022-10-16T02:58:53;1.45;;;1.00;;
31308;SDS011;17936;52.446;10.840;2022-10-16T03:01:18;2.10;;;0.93;;
31308;SDS011;17936;52.446;10.840;2022-10-16T03:03:43;1.20;;;0.95;;
31308;SDS011;17936;52.446;10.840;2022-10-16T03:06:09;3.00;;;1.20;;
31308;SDS011;17936;52.446;10.840;2022-10-16T03:08:34;2.28;;;1.20;;
31308;SDS011;17936;52.446;10.840;2022-10-16T03:11:00;1.45;;;0.88;;
31308;SDS011;17936;52.446;10.840;2022-10-16T03:13:25;4.55;;;1.27;;
31308;SDS011;17936;52.446;10.840;2022-10-16T03:15:51;1.40;;;0.90;;
31308;SDS011;17936;52.446;10.840;2022-10-16T03:18:16;2.55;;;0.98;;
31308;SDS011;17936;52.446;10.840;2022-10-16T03:20:42;1.55;;;1.02;;
31308;SDS011;17936;52.446;10.840;2022-10-16T03:23:08;5.75;;;1.17;;
31308;SDS011;17936;52.446;10.840;2022-10-16T03:25:33;2.40;;;1.13;;
31308;SDS011;17936;52.446;10.840;2022-10-16T03:27:59;2.55;;;1.45;;
31308;SDS011;17936;52.446;10.840;2022-10-16T03:30:24;3.58;;;1.13;;
31308;SDS011;17936;52.446;10.840;2022-10-16T03:32:50;5.18;;;1.35;;
31308;SDS011;17936;52.446;10.840;2022-10-16T03:35:18;3.40;;;1.42;;
31308;SDS011;17936;52.446;10.840;2022-10-16T03:37:44;3.17;;;1.02;;
31308;SDS011;17936;52.446;10.840;2022-10-16T03:40:10;2.22;;;1.00;;
31308;SDS011;17936;52.446;10.840;2022-10-16T03:42:36;3.72;;;1.20;;
31308;SDS011;17936;52.446;10.840;2022-10-16T03:45:01;2.30;;;1.17;;
31308;SDS011;17936;52.446;10.840;2022-10-16T03:47:27;2.33;;;1.30;;
31308;SDS011;17936;52.446;10.840;2022-10-16T03:49:52;5.45;;;1.20;;
31308;SDS011;17936;52.446;10.840;2022-10-16T03:52:18;7.10;;;1.50;;
31308;SDS011;17936;52.446;10.840;2022-10-16T03:54:43;2.20;;;1.35;;
31308;SDS011;17936;52.446;10.840;2022-10-16T03:57:09;2.38;;;1.20;;
31308;SDS011;17936;52.446;10.840;2022-10-16T03:59:34;2.65;;;1.40;;
31308;SDS011;17936;52.446;10.840;2022-10-16T04:02:00;3.72;;;1.35;;
31308;SDS011;17936;52.446;10.840;2022-10-16T04:04:25;3.05;;;1.30;;
31308;SDS011;17936;52.446;10.840;2022-10-16T04:06:51;3.85;;;1.27;;
31308;SDS011;17936;52.446;10.840;2022-10-16T04:09:16;2.95;;;1.45;;
31308;SDS011;17936;52.446;10.840;2022-10-16T04:11:42;3.35;;;1.20;;
31308;SDS011;17936;52.446;10.840;2022-10-16T04:14:07;2.20;;;1.23;;
31308;SDS011;17936;52.446;10.840;2022-10-16T04:16:33;4.35;;;1.60;;
31308;SDS011;17936;52.446;10.840;2022-10-16T04:18:58;6.47;;;1.63;;
31308;SDS011;17936;52.446;10.840;2022-10-16T04:21:24;5.25;;;1.50;;
31308;SDS011;17936;52.446;10.840;2022-10-16T04:23:49;8.57;;;1.60;;
31308;SDS011;17936;52.446;10.840;2022-10-16T04:26:15;3.97;;;1.50;;
31308;SDS011;17936;52.446;10.840;2022-10-16T04:28:41;3.00;;;1.52;;
31308;SDS011;17936;52.446;10.840;2022-10-16T04:31:06;2.10;;;1.33;;
31308;SDS011;17936;52.446;10.840;2022-10-16T04:33:32;2.47;;;1.65;;
31308;SDS011;17936;52.446;10.840;2022-10-16T04:35:59;4.32;;;1.85;;
31308;SDS011;17936;52.446;10.840;2022-10-16T04:38:25;5.85;;;2.00;;
31308;SDS011;17936;52.446;10.840;2022-10-16T04:40:51;3.78;;;1.92;;
31308;SDS011;17936;52.446;10.840;2022-10-16T04:43:17;3.22;;;1.80;;
31308;SDS011;17936;52.446;10.840;2022-10-16T04:45:42;2.72;;;1.63;;
31308;SDS011;17936;52.446;10.840;2022-10-16T04:48:08;3.38;;;1.98;;
31308;SDS011;17936;52.446;10.840;2022-10-16T04:50:34;2.80;;;1.67;;
31308;SDS011;17936;52.446;10.840;2022-10-16T04:52:59;2.08;;;1.50;;
31308;SDS011;17936;52.446;10.840;2022-10-16T04:55:25;4.10;;;1.85;;
31308;SDS011;17936;52.446;10.840;2022-10-16T04:57:50;5.05;;;1.90;;
31308;SDS011;17936;52.446;10.840;2022-10-16T05:00:15;5.97;;;1.80;;
31308;SDS011;17936;52.446;10.840;2022-10-16T05:02:41;1.75;;;1.38;;
31308;SDS011;17936;52.446;10.840;2022-10-16T05:05:07;2.50;;;1.75;;
31308;SDS011;17936;52.446;10.840;2022-10-16T05:07:32;2.50;;;1.70;;
31308;SDS011;17936;52.446;10.840;2022-10-16T05:09:58;3.20;;;1.40;;
31308;SDS011;17936;52.446;10.840;2022-10-16T05:12:23;2.47;;;1.77;;
31308;SDS011;17936;52.446;10.840;2022-10-16T05:14:49;2.50;;;1.70;;
31308;SDS011;17936;52.446;10.840;2022-10-16T05:17:14;3.15;;;1.67;;
31308;SDS011;17936;52.446;10.840;2022-10-16T05:19:39;2.65;;;1.52;;
31308;SDS011;17936;52.446;10.840;2022-10-16T05:22:05;4.68;;;1.33;;
31308;SDS011;17936;52.446;10.840;2022-10-16T05:24:30;4.60;;;1.63;;
31308;SDS011;17936;52.446;10.840;2022-10-16T05:26:56;2.55;;;1.58;;
31308;SDS011;17936;52.446;10.840;2022-10-16T05:29:21;2.95;;;1.50;;
31308;SDS011;17936;52.446;10.840;2022-10-16T05:31:49;6.95;;;1.52;;
31308;SDS011;17936;52.446;10.840;2022-10-16T05:34:18;1.70;;;1.30;;
31308;SDS011;17936;52.446;10.840;2022-10-16T05:36:43;3.83;;;1.67;;
31308;SDS011;17936;52.446;10.840;2022-10-16T05:39:10;5.03;;;1.75;;
31308;SDS011;17936;52.446;10.840;2022-10-16T05:41:36;5.10;;;1.50;;
31308;SDS011;17936;52.446;10.840;2022-10-16T05:44:03;3.35;;;1.60;;
31308;SDS011;17936;52.446;10.840;2022-10-16T05:46:30;2.83;;;1.67;;
31308;SDS011;17936;52.446;10.840;2022-10-16T05:48:55;4.43;;;1.90;;
31308;SDS011;17936;52.446;10.840;2022-10-16T05:51:21;3.63;;;1.88;;
31308;SDS011;17936;52.446;10.840;2022-10-16T05:53:46;10.85;;;2.50;;
31308;SDS011;17936;52.446;10.840;2022-10-16T05:56:12;4.53;;;2.03;;
31308;SDS011;17936;52.446;10.840;2022-10-16T05:58:38;5.70;;;2.33;;
31308;SDS011;17936;52.446;10.840;2022-10-16T06:01:15;4.13;;;2.00;;
31308;SDS011;17936;52.446;10.840;2022-10-16T06:03:42;6.28;;;2.45;;
31308;SDS011;17936;52.446;10.840;2022-10-16T06:06:14;6.20;;;2.45;;
31308;SDS011;17936;52.446;10.840;2022-10-16T06:08:41;7.50;;;2.72;;
31308;SDS011;17936;52.446;10.840;2022-10-16T06:11:09;5.28;;;2.03;;
31308;SDS011;17936;52.446;10.840;2022-10-16T06:13:38;3.85;;;2.25;;
31308;SDS011;17936;52.446;10.840;2022-10-16T06:16:06;7.10;;;2.40;;
31308;SDS011;17936;52.446;10.840;2022-10-16T06:18:33;7.10;;;2.60;;
31308;SDS011;17936;52.446;10.840;2022-10-16T06:20:58;5.50;;;2.58;;
31308;SDS011;17936;52.446;10.840;2022-10-16T06:23:24;4.53;;;2.50;;
31308;SDS011;17936;52.446;10.840;2022-10-16T06:25:50;9.15;;;2.85;;
31308;SDS011;17936;52.446;10.840;2022-10-16T06:28:16;4.00;;;2.20;;
31308;SDS011;17936;52.446;10.840;2022-10-16T06:30:41;9.23;;;2.05;;
31308;SDS011;17936;52.446;10.840;2022-10-16T06:33:08;5.78;;;2.58;;
31308;SDS011;17936;52.446;10.840;2022-10-16T06:35:35;4.20;;;2.40;;
31308;SDS011;17936;52.446;10.840;2022-10-16T06:38:00;4.57;;;2.58;;
31308;SDS011;17936;52.446;10.840;2022-10-16T06:40:26;5.10;;;2.70;;
31308;SDS011;17936;52.446;10.840;2022-10-16T06:42:54;6.97;;;2.47;;
31308;SDS011;17936;52.446;10.840;2022-10-16T06:45:20;3.70;;;1.92;;
31308;SDS011;17936;52.446;10.840;2022-10-16T06:47:45;5.05;;;2.20;;
31308;SDS011;17936;52.446;10.840;2022-10-16T06:50:11;4.72;;;2.03;;
31308;SDS011;17936;52.446;10.840;2022-10-16T06:52:36;4.53;;;1.98;;
31308;SDS011;17936;52.446;10.840;2022-10-16T06:55:02;5.18;;;2.15;;
31308;SDS011;17936;52.446;10.840;2022-10-16T06:57:28;3.33;;;1.90;;
31308;SDS011;17936;52.446;10.840;2022-10-16T06:59:53;5.72;;;2.20;;
31308;SDS011;17936;52.446;10.840;2022-10-16T07:02:19;5.18;;;2.08;;
31308;SDS011;17936;52.446;10.840;2022-10-16T07:04:44;3.30;;;2.33;;
31308;SDS011;17936;52.446;10.840;2022-10-16T07:07:10;7.40;;;1.80;;
31308;SDS011;17936;52.446;10.840;2022-10-16T07:09:35;2.60;;;1.85;;
31308;SDS011;17936;52.446;10.840;2022-10-16T07:12:04;2.80;;;2.15;;
31308;SDS011;17936;52.446;10.840;2022-10-16T07:14:30;2.67;;;1.90;;
31308;SDS011;17936;52.446;10.840;2022-10-16T07:16:55;4.25;;;2.20;;
31308;SDS011;17936;52.446;10.840;2022-10-16T07:19:21;6.80;;;2.17;;
31308;SDS011;17936;52.446;10.840;2022-10-16T07:21:46;3.90;;;1.73;;
31308;SDS011;17936;52.446;10.840;2022-10-16T07:24:15;3.88;;;1.50;;
31308;SDS011;17936;52.446;10.840;2022-10-16T07:26:42;4.50;;;1.33;;
31308;SDS011;17936;52.446;10.840;2022-10-16T07:29:13;2.58;;;1.30;;
31308;SDS011;17936;52.446;10.840;2022-10-16T07:31:46;8.30;;;1.23;;
31308;SDS011;17936;52.446;10.840;2022-10-16T07:34:13;4.45;;;1.27;;
31308;SDS011;17936;52.446;10.840;2022-10-16T07:36:40;3.50;;;1.50;;
31308;SDS011;17936;52.446;10.840;2022-10-16T07:39:06;1.45;;;1.10;;
31308;SDS011;17936;52.446;10.840;2022-10-16T07:41:31;3.33;;;1.15;;
31308;SDS011;17936;52.446;10.840;2022-10-16T07:43:57;2.70;;;1.00;;
31308;SDS011;17936;52.446;10.840;2022-10-16T07:46:25;2.45;;;1.00;;
31308;SDS011;17936;52.446;10.840;2022-10-16T07:48:51;2.53;;;0.98;;
31308;SDS011;17936;52.446;10.840;2022-10-16T07:51:17;3.22;;;0.77;;
31308;SDS011;17936;52.446;10.840;2022-10-16T07:53:45;1.83;;;1.13;;
31308;SDS011;17936;52.446;10.840;2022-10-16T07:56:11;3.20;;;1.10;;
31308;SDS011;17936;52.446;10.840;2022-10-16T07:58:37;2.10;;;0.90;;
31308;SDS011;17936;52.446;10.840;2022-10-16T08:01:03;3.53;;;0.93;;
31308;SDS011;17936;52.446;10.840;2022-10-16T08:03:30;0.85;;;0.77;;
31308;SDS011;17936;52.446;10.840;2022-10-16T08:05:56;2.85;;;1.10;;
31308;SDS011;17936;52.446;10.840;2022-10-16T08:08:22;1.88;;;1.00;;
31308;SDS011;17936;52.446;10.840;2022-10-16T08:10:48;1.83;;;0.98;;
31308;SDS011;17936;52.446;10.840;2022-10-16T08:13:13;1.52;;;0.80;;
31308;SDS011;17936;52.446;10.840;2022-10-16T08:15:40;3.58;;;0.82;;
31308;SDS011;17936;52.446;10.840;2022-10-16T08:18:06;3.40;;;0.70;;
31308;SDS011;17936;52.446;10.840;2022-10-16T08:20:32;2.10;;;0.63;;
31308;SDS011;17936;52.446;10.840;2022-10-16T08:22:58;2.20;;;0.80;;
31308;SDS011;17936;52.446;10.840;2022-10-16T08:25:24;2.28;;;0.90;;
31308;SDS011;17936;52.446;10.840;2022-10-16T08:27:50;0.90;;;0.60;;
31308;SDS011;17936;52.446;10.840;2022-10-16T08:30:17;2.10;;;0.90;;
31308;SDS011;17936;52.446;10.840;2022-10-16T08:32:44;2.25;;;0.80;;
31308;SDS011;17936;52.446;10.840;2022-10-16T08:35:10;4.90;;;0.70;;
31308;SDS011;17936;52.446;10.840;2022-10-16T08:37:36;6.63;;;0.80;;
31308;SDS011;17936;52.446;10.840;2022-10-16T08:40:03;2.90;;;0.45;;
31308;SDS011;17936;52.446;10.840;2022-10-16T08:45:26;4.97;;;0.70;;
31308;SDS011;17936;52.446;10.840;2022-10-16T08:50:36;3.50;;;0.73;;
31308;SDS011;17936;52.446;10.840;2022-10-16T08:53:04;1.42;;;0.80;;
31308;SDS011;17936;52.446;10.840;2022-10-16T08:55:45;0.57;;;0.47;;
31308;SDS011;17936;52.446;10.840;2022-10-16T08:58:15;2.20;;;0.70;;
31308;SDS011;17936;52.446;10.840;2022-10-16T09:00:44;1.10;;;0.60;;
31308;SDS011;17936;52.446;10.840;2022-10-16T09:03:17;3.13;;;0.80;;
31308;SDS011;17936;52.446;10.840;2022-10-16T09:06:20;2.17;;;0.85;;
31308;SDS011;17936;52.446;10.840;2022-10-16T09:09:14;5.05;;;1.00;;
31308;SDS011;17936;52.446;10.840;2022-10-16T09:14:50;4.18;;;0.93;;
31308;SDS011;17936;52.446;10.840;2022-10-16T09:17:24;1.40;;;0.65;;
31308;SDS011;17936;52.446;10.840;2022-10-16T09:22:37;2.15;;;1.10;;
31308;SDS011;17936;52.446;10.840;2022-10-16T09:25:10;1.27;;;0.73;;
31308;SDS011;17936;52.446;10.840;2022-10-16T09:27:38;0.90;;;0.60;;
31308;SDS011;17936;52.446;10.840;2022-10-16T09:30:14;1.10;;;0.80;;
31308;SDS011;17936;52.446;10.840;2022-10-16T09:32:43;1.30;;;0.88;;
31308;SDS011;17936;52.446;10.840;2022-10-16T09:35:14;0.70;;;0.60;;
31308;SDS011;17936;52.446;10.840;2022-10-16T09:37:50;1.08;;;0.63;;
31308;SDS011;17936;52.446;10.840;2022-10-16T09:40:32;4.30;;;0.90;;
31308;SDS011;17936;52.446;10.840;2022-10-16T09:46:00;1.77;;;0.50;;
31308;SDS011;17936;52.446;10.840;2022-10-16T09:48:33;1.15;;;0.57;;
31308;SDS011;17936;52.446;10.840;2022-10-16T09:51:13;3.72;;;0.57;;
31308;SDS011;17936;52.446;10.840;2022-10-16T09:53:47;0.43;;;0.40;;
31308;SDS011;17936;52.446;10.840;2022-10-16T09:59:14;1.30;;;0.47;;
31308;SDS011;17936;52.446;10.840;2022-10-16T10:01:43;1.05;;;0.50;;
31308;SDS011;17936;52.446;10.840;2022-10-16T10:04:11;0.82;;;0.45;;
31308;SDS011;17936;52.446;10.840;2022-10-16T10:06:37;2.72;;;0.60;;
31308;SDS011;17936;52.446;10.840;2022-10-16T10:09:21;0.90;;;0.70;;
31308;SDS011;17936;52.446;10.840;2022-10-16T13:11:14;1.58;;;0.38;;
31308;SDS011;17936;52.446;10.840;2022-10-16T13:14:08;0.88;;;0.45;;
31308;SDS011;17936;52.446;10.840;2022-10-16T13:19:22;1.92;;;0.52;;
31308;SDS011;17936;52.446;10.840;2022-10-16T13:22:11;1.13;;;0.40;;
31308;SDS011;17936;52.446;10.840;2022-10-16T13:24:58;1.48;;;0.50;;
31308;SDS011;17936;52.446;10.840;2022-10-16T13:27:41;1.63;;;0.55;;
31308;SDS011;17936;52.446;10.840;2022-10-16T13:30:16;2.38;;;0.63;;
31308;SDS011;17936;52.446;10.840;2022-10-16T13:32:47;2.45;;;0.30;;
31308;SDS011;17936;52.446;10.840;2022-10-16T13:35:26;1.35;;;0.43;;
31308;SDS011;17936;52.446;10.840;2022-10-16T13:38:11;1.58;;;0.70;;
31308;SDS011;17936;52.446;10.840;2022-10-16T13:40:58;0.80;;;0.38;;
31308;SDS011;17936;52.446;10.840;2022-10-16T13:43:27;2.05;;;0.60;;
31308;SDS011;17936;52.446;10.840;2022-10-16T13:48:56;3.45;;;0.50;;
31308;SDS011;17936;52.446;10.840;2022-10-16T13:51:27;1.38;;;0.32;;
31308;SDS011;17936;52.446;10.840;2022-10-16T13:53:54;3.28;;;0.40;;
31308;SDS011;17936;52.446;10.840;2022-10-16T13:56:22;1.33;;;0.50;;
31308;SDS011;17936;52.446;10.840;2022-10-16T13:58:59;0.82;;;0.47;;
31308;SDS011;17936;52.446;10.840;2022-10-16T14:01:30;2.03;;;0.38;;
31308;SDS011;17936;52.446;10.840;2022-10-16T14:04:08;2.05;;;0.55;;
31308;SDS011;17936;52.446;10.840;2022-10-16T14:06:36;5.68;;;0.70;;
31308;SDS011;17936;52.446;10.840;2022-10-16T14:09:06;1.40;;;0.20;;
31308;SDS011;17936;52.446;10.840;2022-10-16T14:11:55;1.65;;;0.47;;
31308;SDS011;17936;52.446;10.840;2022-10-16T14:14:27;3.80;;;0.60;;
31308;SDS011;17936;52.446;10.840;2022-10-16T14:17:06;1.50;;;0.38;;
31308;SDS011;17936;52.446;10.840;2022-10-16T14:19:38;2.15;;;0.50;;
31308;SDS011;17936;52.446;10.840;2022-10-16T14:22:03;0.70;;;0.32;;
31308;SDS011;17936;52.446;10.840;2022-10-16T14:24:49;1.17;;;0.40;;
31308;SDS011;17936;52.446;10.840;2022-10-16T14:27:34;3.08;;;0.57;;
31308;SDS011;17936;52.446;10.840;2022-10-16T14:30:14;1.13;;;0.35;;
31308;SDS011;17936;52.446;10.840;2022-10-16T14:32:53;0.63;;;0.30;;
31308;SDS011;17936;52.446;10.840;2022-10-16T14:35:24;1.50;;;0.50;;
31308;SDS011;17936;52.446;10.840;2022-10-16T14:37:57;0.88;;;0.30;;
31308;SDS011;17936;52.446;10.840;2022-10-16T14:40:25;0.68;;;0.28;;
31308;SDS011;17936;52.446;10.840;2022-10-16T14:42:53;2.10;;;0.43;;
31308;SDS011;17936;52.446;10.840;2022-10-16T14:45:20;0.63;;;0.22;;
31308;SDS011;17936;52.446;10.840;2022-10-16T14:47:55;0.77;;;0.35;;
31308;SDS011;17936;52.446;10.840;2022-10-16T14:50:23;3.13;;;0.35;;
31308;SDS011;17936;52.446;10.840;2022-10-16T14:52:49;1.23;;;0.40;;
31308;SDS011;17936;52.446;10.840;2022-10-16T14:55:14;3.50;;;0.52;;
31308;SDS011;17936;52.446;10.840;2022-10-16T14:57:40;2.35;;;0.50;;
31308;SDS011;17936;52.446;10.840;2022-10-16T15:00:13;1.67;;;0.55;;
31308;SDS011;17936;52.446;10.840;2022-10-16T15:02:45;3.55;;;0.70;;
31308;SDS011;17936;52.446;10.840;2022-10-16T15:07:45;3.47;;;0.90;;
31308;SDS011;17936;52.446;10.840;2022-10-16T15:10:14;1.50;;;0.40;;
31308;SDS011;17936;52.446;10.840;2022-10-16T15:12:41;5.07;;;0.52;;
31308;SDS011;17936;52.446;10.840;2022-10-16T15:17:48;1.00;;;0.38;;
31308;SDS011;17936;52.446;10.840;2022-10-16T15:22:45;1.13;;;0.70;;
31308;SDS011;17936;52.446;10.840;2022-10-16T15:27:58;2.78;;;0.82;;
31308;SDS011;17936;52.446;10.840;2022-10-16T15:30:24;2.85;;;0.82;;
31308;SDS011;17936;52.446;10.840;2022-10-16T15:32:50;1.55;;;0.63;;
31308;SDS011;17936;52.446;10.840;2022-10-16T15:35:16;2.15;;;0.82;;
31308;SDS011;17936;52.446;10.840;2022-10-16T15:37:41;2.10;;;0.85;;
31308;SDS011;17936;52.446;10.840;2022-10-16T15:40:08;2.45;;;0.70;;
31308;SDS011;17936;52.446;10.840;2022-10-16T15:42:34;2.38;;;1.15;;
31308;SDS011;17936;52.446;10.840;2022-10-16T15:45:00;2.72;;;1.20;;
31308;SDS011;17936;52.446;10.840;2022-10-16T15:47:26;1.90;;;0.90;;
31308;SDS011;17936;52.446;10.840;2022-10-16T15:49:51;2.25;;;0.70;;
31308;SDS011;17936;52.446;10.840;2022-10-16T15:52:16;2.55;;;0.80;;
31308;SDS011;17936;52.446;10.840;2022-10-16T15:54:42;1.95;;;0.75;;
31308;SDS011;17936;52.446;10.840;2022-10-16T15:57:08;1.17;;;0.60;;
31308;SDS011;17936;52.446;10.840;2022-10-16T15:59:33;1.63;;;0.60;;
31308;SDS011;17936;52.446;10.840;2022-10-16T16:01:59;1.05;;;0.60;;
31308;SDS011;17936;52.446;10.840;2022-10-16T16:04:24;1.40;;;0.40;;
31308;SDS011;17936;52.446;10.840;2022-10-16T16:06:50;1.20;;;0.55;;
31308;SDS011;17936;52.446;10.840;2022-10-16T16:09:16;4.35;;;0.80;;
31308;SDS011;17936;52.446;10.840;2022-10-16T16:11:41;2.55;;;0.68;;
31308;SDS011;17936;52.446;10.840;2022-10-16T16:14:07;2.97;;;0.85;;
31308;SDS011;17936;52.446;10.840;2022-10-16T16:16:37;1.50;;;0.57;;
31308;SDS011;17936;52.446;10.840;2022-10-16T16:19:03;2.85;;;0.80;;
31308;SDS011;17936;52.446;10.840;2022-10-16T16:21:30;3.67;;;1.10;;
31308;SDS011;17936;52.446;10.840;2022-10-16T16:23:56;5.80;;;2.00;;
31308;SDS011;17936;52.446;10.840;2022-10-16T16:26:23;6.00;;;2.10;;
31308;SDS011;17936;52.446;10.840;2022-10-16T16:28:57;6.35;;;2.03;;
31308;SDS011;17936;52.446;10.840;2022-10-16T16:31:26;4.65;;;1.25;;
31308;SDS011;17936;52.446;10.840;2022-10-16T16:33:53;6.13;;;1.80;;
31308;SDS011;17936;52.446;10.840;2022-10-16T16:36:18;4.22;;;1.88;;
31308;SDS011;17936;52.446;10.840;2022-10-16T16:38:45;5.18;;;2.00;;
31308;SDS011;17936;52.446;10.840;2022-10-16T16:41:12;2.53;;;1.63;;
31308;SDS011;17936;52.446;10.840;2022-10-16T16:43:38;2.60;;;1.25;;
31308;SDS011;17936;52.446;10.840;2022-10-16T16:46:04;2.03;;;1.27;;
31308;SDS011;17936;52.446;10.840;2022-10-16T16:48:29;1.67;;;1.20;;
31308;SDS011;17936;52.446;10.840;2022-10-16T16:50:56;6.18;;;1.40;;
31308;SDS011;17936;52.446;10.840;2022-10-16T16:53:21;7.20;;;1.38;;
31308;SDS011;17936;52.446;10.840;2022-10-16T16:55:47;4.53;;;1.70;;
31308;SDS011;17936;52.446;10.840;2022-10-16T16:58:13;3.03;;;1.48;;
31308;SDS011;17936;52.446;10.840;2022-10-16T17:00:44;3.67;;;1.42;;
31308;SDS011;17936;52.446;10.840;2022-10-16T17:03:10;2.08;;;1.25;;
31308;SDS011;17936;52.446;10.840;2022-10-16T17:05:36;9.43;;;1.33;;
31308;SDS011;17936;52.446;10.840;2022-10-16T17:08:01;2.60;;;1.08;;
31308;SDS011;17936;52.446;10.840;2022-10-16T17:10:27;3.10;;;1.13;;
31308;SDS011;17936;52.446;10.840;2022-10-16T17:12:53;2.55;;;1.17;;
31308;SDS011;17936;52.446;10.840;2022-10-16T17:15:18;1.45;;;0.85;;
31308;SDS011;17936;52.446;10.840;2022-10-16T17:17:43;3.97;;;1.52;;
31308;SDS011;17936;52.446;10.840;2022-10-16T17:20:09;3.47;;;1.73;;
31308;SDS011;17936;52.446;10.840;2022-10-16T17:22:35;5.40;;;1.95;;
31308;SDS011;17936;52.446;10.840;2022-10-16T17:25:00;5.60;;;2.00;;
31308;SDS011;17936;52.446;10.840;2022-10-16T17:27:28;3.33;;;1.83;;
31308;SDS011;17936;52.446;10.840;2022-10-16T17:29:53;3.88;;;2.40;;
31308;SDS011;17936;52.446;10.840;2022-10-16T17:32:19;7.60;;;4.10;;
31308;SDS011;17936;52.446;10.840;2022-10-16T17:34:45;8.70;;;3.72;;
31308;SDS011;17936;52.446;10.840;2022-10-16T17:37:11;7.63;;;3.90;;
31308;SDS011;17936;52.446;10.840;2022-10-16T17:39:37;9.85;;;4.43;;
31308;SDS011;17936;52.446;10.840;2022-10-16T17:42:02;8.70;;;3.70;;
31308;SDS011;17936;52.446;10.840;2022-10-16T17:44:28;8.32;;;4.07;;
31308;SDS011;17936;52.446;10.840;2022-10-16T17:46:53;8.82;;;3.90;;
31308;SDS011;17936;52.446;10.840;2022-10-16T17:49:19;6.03;;;2.58;;
31308;SDS011;17936;52.446;10.840;2022-10-16T17:51:45;7.53;;;3.17;;
31308;SDS011;17936;52.446;10.840;2022-10-16T17:54:13;6.72;;;2.30;;
31308;SDS011;17936;52.446;10.840;2022-10-16T17:56:39;5.15;;;2.58;;
31308;SDS011;17936;52.446;10.840;2022-10-16T17:59:05;6.55;;;2.17;;
31308;SDS011;17936;52.446;10.840;2022-10-16T18:01:35;4.25;;;1.75;;
31308;SDS011;17936;52.446;10.840;2022-10-16T18:04:11;4.15;;;2.17;;
31308;SDS011;17936;52.446;10.840;2022-10-16T18:06:39;5.57;;;2.00;;
31308;SDS011;17936;52.446;10.840;2022-10-16T18:09:06;3.55;;;1.75;;
31308;SDS011;17936;52.446;10.840;2022-10-16T18:11:33;5.55;;;2.35;;
31308;SDS011;17936;52.446;10.840;2022-10-16T18:13:59;5.85;;;1.83;;
31308;SDS011;17936;52.446;10.840;2022-10-16T18:16:25;5.00;;;2.13;;
31308;SDS011;17936;52.446;10.840;2022-10-16T18:18:52;5.97;;;2.30;;
31308;SDS011;17936;52.446;10.840;2022-10-16T18:21:19;5.47;;;2.47;;
31308;SDS011;17936;52.446;10.840;2022-10-16T18:23:45;6.78;;;2.53;;